sensor_id;sensor_type;location;lat;lon;timestamp;noise_LAeq;noise_LA_min;noise_LA_max;noise_LA01;noise_LA95
60872;Laerm;46714;50.118;14.462;2022-10-22T00:01:17;68.50;60.28;76.69;;
60872;Laerm;46714;50.118;14.462;2022-10-22T00:03:44;68.18;56.68;75.74;;
60872;Laerm;46714;50.118;14.462;2022-10-22T00:06:09;67.40;53.70;74.99;;
60872;Laerm;46714;50.118;14.462;2022-10-22T00:08:37;69.81;57.39;77.69;;
60872;Laerm;46714;50.118;14.462;2022-10-22T00:11:11;68.87;55.28;78.47;;
60872;Laerm;46714;50.118;14.462;2022-10-22T00:13:37;68.82;54.26;76.38;;
60872;Laerm;46714;50.118;14.462;2022-10-22T00:16:03;67.53;51.64;75.38;;
60872;Laerm;46714;50.118;14.462;2022-10-22T00:18:28;67.76;50.39;75.10;;
60872;Laerm;46714;50.118;14.462;2022-10-22T00:20:53;68.53;50.53;78.67;;
60872;Laerm;46714;50.118;14.462;2022-10-22T00:23:19;68.38;53.57;78.10;;
60872;Laerm;46714;50.118;14.462;2022-10-22T00:25:44;69.18;58.37;77.15;;
60872;Laerm;46714;50.118;14.462;2022-10-22T00:28:09;67.23;51.12;74.42;;
60872;Laerm;46714;50.118;14.462;2022-10-22T00:30:36;67.74;56.94;76.40;;
60872;Laerm;46714;50.118;14.462;2022-10-22T00:33:01;66.71;53.81;75.29;;
60872;Laerm;46714;50.118;14.462;2022-10-22T00:35:26;64.15;52.00;73.33;;
60872;Laerm;46714;50.118;14.462;2022-10-22T00:37:52;66.26;45.83;76.26;;
60872;Laerm;46714;50.118;14.462;2022-10-22T00:40:17;67.52;54.23;75.32;;
60872;Laerm;46714;50.118;14.462;2022-10-22T00:42:43;68.63;56.02;75.01;;
60872;Laerm;46714;50.118;14.462;2022-10-22T00:50:15;66.83;51.26;76.04;;
60872;Laerm;46714;50.118;14.462;2022-10-22T00:52:42;67.99;57.97;77.09;;
60872;Laerm;46714;50.118;14.462;2022-10-22T00:55:08;67.27;55.95;77.49;;
60872;Laerm;46714;50.118;14.462;2022-10-22T00:57:34;67.19;52.55;76.73;;
60872;Laerm;46714;50.118;14.462;2022-10-22T01:00:00;65.76;51.84;73.18;;
60872;Laerm;46714;50.118;14.462;2022-10-22T01:02:26;66.60;51.53;74.54;;
60872;Laerm;46714;50.118;14.462;2022-10-22T01:04:52;65.99;51.75;72.29;;
60872;Laerm;46714;50.118;14.462;2022-10-22T01:07:20;69.03;50.17;77.08;;
60872;Laerm;46714;50.118;14.462;2022-10-22T01:17:43;67.16;52.99;76.07;;
60872;Laerm;46714;50.118;14.462;2022-10-22T01:20:36;66.06;51.38;75.50;;
60872;Laerm;46714;50.118;14.462;2022-10-22T01:26:24;67.74;55.25;78.03;;
60872;Laerm;46714;50.118;14.462;2022-10-22T01:28:56;66.89;55.25;75.92;;
60872;Laerm;46714;50.118;14.462;2022-10-22T01:31:24;66.62;49.07;76.01;;
60872;Laerm;46714;50.118;14.462;2022-10-22T01:33:53;68.23;50.64;78.04;;
60872;Laerm;46714;50.118;14.462;2022-10-22T01:36:20;67.22;45.42;75.54;;
60872;Laerm;46714;50.118;14.462;2022-10-22T01:38:48;66.79;45.39;75.26;;
60872;Laerm;46714;50.118;14.462;2022-10-22T01:41:15;67.22;51.76;76.58;;
60872;Laerm;46714;50.118;14.462;2022-10-22T01:43:42;68.53;55.87;76.62;;
60872;Laerm;46714;50.118;14.462;2022-10-22T01:46:09;67.23;53.79;76.90;;
60872;Laerm;46714;50.118;14.462;2022-10-22T01:51:43;66.22;47.32;74.56;;
60872;Laerm;46714;50.118;14.462;2022-10-22T02:02:27;67.44;51.82;75.60;;
60872;Laerm;46714;50.118;14.462;2022-10-22T02:05:11;66.82;51.87;76.35;;
60872;Laerm;46714;50.118;14.462;2022-10-22T02:07:46;69.26;59.04;80.20;;
60872;Laerm;46714;50.118;14.462;2022-10-22T02:10:15;67.77;45.83;80.65;;
60872;Laerm;46714;50.118;14.462;2022-10-22T02:12:45;67.54;54.41;75.75;;
60872;Laerm;46714;50.118;14.462;2022-10-22T02:15:14;69.05;57.79;78.55;;
60872;Laerm;46714;50.118;14.462;2022-10-22T02:17:44;66.70;51.78;75.94;;
60872;Laerm;46714;50.118;14.462;2022-10-22T02:20:26;66.87;50.89;75.88;;
60872;Laerm;46714;50.118;14.462;2022-10-22T02:22:52;67.37;51.21;76.14;;
60872;Laerm;46714;50.118;14.462;2022-10-22T02:25:20;66.20;49.38;73.83;;
60872;Laerm;46714;50.118;14.462;2022-10-22T02:30:43;67.15;43.72;77.23;;
60872;Laerm;46714;50.118;14.462;2022-10-22T02:33:15;65.34;52.13;74.80;;
60872;Laerm;46714;50.118;14.462;2022-10-22T02:35:44;67.38;52.04;76.66;;
60872;Laerm;46714;50.118;14.462;2022-10-22T02:38:11;68.02;44.73;80.67;;
60872;Laerm;46714;50.118;14.462;2022-10-22T02:40:38;68.44;46.28;79.99;;
60872;Laerm;46714;50.118;14.462;2022-10-22T02:43:04;68.39;53.59;75.71;;
60872;Laerm;46714;50.118;14.462;2022-10-22T02:45:30;66.58;53.94;76.43;;
60872;Laerm;46714;50.118;14.462;2022-10-22T02:47:57;67.02;51.90;75.16;;
60872;Laerm;46714;50.118;14.462;2022-10-22T02:50:23;67.12;52.54;75.71;;
60872;Laerm;46714;50.118;14.462;2022-10-22T02:52:48;64.47;46.76;75.26;;
60872;Laerm;46714;50.118;14.462;2022-10-22T02:55:14;67.69;50.56;77.68;;
60872;Laerm;46714;50.118;14.462;2022-10-22T02:57:39;67.79;50.14;75.94;;
60872;Laerm;46714;50.118;14.462;2022-10-22T03:00:07;67.40;53.86;76.52;;
60872;Laerm;46714;50.118;14.462;2022-10-22T03:02:34;67.75;58.63;76.14;;
60872;Laerm;46714;50.118;14.462;2022-10-22T03:04:59;67.74;49.36;75.24;;
60872;Laerm;46714;50.118;14.462;2022-10-22T03:07:25;66.56;57.14;76.29;;
60872;Laerm;46714;50.118;14.462;2022-10-22T03:09:51;65.80;50.52;75.68;;
60872;Laerm;46714;50.118;14.462;2022-10-22T03:12:17;67.69;51.72;77.54;;
60872;Laerm;46714;50.118;14.462;2022-10-22T03:14:42;67.04;52.45;74.36;;
60872;Laerm;46714;50.118;14.462;2022-10-22T03:17:08;65.33;45.97;72.45;;
60872;Laerm;46714;50.118;14.462;2022-10-22T03:19:33;67.55;51.52;75.68;;
60872;Laerm;46714;50.118;14.462;2022-10-22T03:22:01;68.74;52.19;80.76;;
60872;Laerm;46714;50.118;14.462;2022-10-22T03:24:34;70.13;61.04;76.50;;
60872;Laerm;46714;50.118;14.462;2022-10-22T03:27:02;66.70;52.84;75.92;;
60872;Laerm;46714;50.118;14.462;2022-10-22T03:29:28;67.58;50.17;75.46;;
60872;Laerm;46714;50.118;14.462;2022-10-22T03:31:55;68.17;53.13;75.76;;
60872;Laerm;46714;50.118;14.462;2022-10-22T03:34:21;69.18;56.93;75.71;;
60872;Laerm;46714;50.118;14.462;2022-10-22T03:36:47;67.62;55.08;75.33;;
60872;Laerm;46714;50.118;14.462;2022-10-22T03:39:14;66.81;51.57;73.76;;
60872;Laerm;46714;50.118;14.462;2022-10-22T03:41:42;68.95;54.62;74.09;;
60872;Laerm;46714;50.118;14.462;2022-10-22T03:44:08;70.60;55.98;76.71;;
60872;Laerm;46714;50.118;14.462;2022-10-22T03:46:35;69.96;56.90;90.34;;
60872;Laerm;46714;50.118;14.462;2022-10-22T03:49:01;69.48;53.79;75.94;;
60872;Laerm;46714;50.118;14.462;2022-10-22T03:51:27;69.08;59.95;75.98;;
60872;Laerm;46714;50.118;14.462;2022-10-22T03:53:53;69.53;58.35;77.24;;
60872;Laerm;46714;50.118;14.462;2022-10-22T03:56:18;69.43;57.78;77.62;;
60872;Laerm;46714;50.118;14.462;2022-10-22T03:58:44;69.28;59.30;74.62;;
60872;Laerm;46714;50.118;14.462;2022-10-22T04:01:12;69.21;59.28;78.51;;
60872;Laerm;46714;50.118;14.462;2022-10-22T04:03:38;68.70;52.12;75.88;;
60872;Laerm;46714;50.118;14.462;2022-10-22T04:06:06;69.73;56.85;81.59;;
60872;Laerm;46714;50.118;14.462;2022-10-22T04:08:35;69.80;59.80;79.48;;
60872;Laerm;46714;50.118;14.462;2022-10-22T04:11:01;70.97;61.70;80.28;;
60872;Laerm;46714;50.118;14.462;2022-10-22T04:13:26;69.65;55.49;75.25;;
60872;Laerm;46714;50.118;14.462;2022-10-22T04:15:52;70.95;61.77;76.72;;
60872;Laerm;46714;50.118;14.462;2022-10-22T04:18:19;70.89;64.38;77.26;;
60872;Laerm;46714;50.118;14.462;2022-10-22T04:20:44;71.03;59.55;77.58;;
60872;Laerm;46714;50.118;14.462;2022-10-22T04:23:10;70.63;61.44;76.91;;
60872;Laerm;46714;50.118;14.462;2022-10-22T04:25:36;70.43;62.27;76.91;;
60872;Laerm;46714;50.118;14.462;2022-10-22T04:28:01;71.45;55.02;77.16;;
60872;Laerm;46714;50.118;14.462;2022-10-22T04:30:27;71.53;63.48;78.36;;
60872;Laerm;46714;50.118;14.462;2022-10-22T04:32:52;71.96;62.20;84.63;;
60872;Laerm;46714;50.118;14.462;2022-10-22T04:35:17;71.16;62.14;77.12;;
60872;Laerm;46714;50.118;14.462;2022-10-22T04:37:43;71.91;63.36;76.88;;
60872;Laerm;46714;50.118;14.462;2022-10-22T04:40:09;71.73;64.95;79.60;;
60872;Laerm;46714;50.118;14.462;2022-10-22T04:42:35;71.49;62.26;77.67;;
60872;Laerm;46714;50.118;14.462;2022-10-22T04:45:00;71.75;62.71;80.24;;
60872;Laerm;46714;50.118;14.462;2022-10-22T04:47:25;71.89;63.53;77.24;;
60872;Laerm;46714;50.118;14.462;2022-10-22T04:49:51;70.97;59.04;77.38;;
60872;Laerm;46714;50.118;14.462;2022-10-22T04:52:16;72.20;63.00;79.04;;
60872;Laerm;46714;50.118;14.462;2022-10-22T04:54:41;71.55;61.20;77.19;;
60872;Laerm;46714;50.118;14.462;2022-10-22T04:57:07;71.18;61.77;78.32;;
60872;Laerm;46714;50.118;14.462;2022-10-22T04:59:32;71.92;61.97;77.18;;
60872;Laerm;46714;50.118;14.462;2022-10-22T05:01:58;71.71;64.21;80.66;;
60872;Laerm;46714;50.118;14.462;2022-10-22T05:04:23;70.82;60.59;77.60;;
60872;Laerm;46714;50.118;14.462;2022-10-22T05:06:48;71.89;63.29;77.05;;
60872;Laerm;46714;50.118;14.462;2022-10-22T05:09:16;71.75;64.64;79.81;;
60872;Laerm;46714;50.118;14.462;2022-10-22T05:11:43;71.35;60.11;80.45;;
60872;Laerm;46714;50.118;14.462;2022-10-22T05:14:11;72.01;64.17;77.55;;
60872;Laerm;46714;50.118;14.462;2022-10-22T05:16:37;72.33;63.14;81.29;;
60872;Laerm;46714;50.118;14.462;2022-10-22T05:19:03;75.55;66.01;91.34;;
60872;Laerm;46714;50.118;14.462;2022-10-22T05:21:28;73.17;66.09;78.78;;
60872;Laerm;46714;50.118;14.462;2022-10-22T05:23:55;73.03;64.11;78.42;;
60872;Laerm;46714;50.118;14.462;2022-10-22T05:26:22;73.57;66.74;78.16;;
60872;Laerm;46714;50.118;14.462;2022-10-22T05:28:48;73.28;66.62;78.29;;
60872;Laerm;46714;50.118;14.462;2022-10-22T05:31:15;73.48;65.54;77.93;;
60872;Laerm;46714;50.118;14.462;2022-10-22T05:33:41;73.66;65.89;78.01;;
60872;Laerm;46714;50.118;14.462;2022-10-22T05:36:09;73.71;67.03;78.63;;
60872;Laerm;46714;50.118;14.462;2022-10-22T05:38:36;75.01;68.00;82.13;;
60872;Laerm;46714;50.118;14.462;2022-10-22T05:41:08;74.08;64.50;80.00;;
60872;Laerm;46714;50.118;14.462;2022-10-22T05:43:37;75.42;68.18;83.04;;
60872;Laerm;46714;50.118;14.462;2022-10-22T05:46:06;75.65;67.87;80.86;;
60872;Laerm;46714;50.118;14.462;2022-10-22T05:48:32;77.70;69.54;82.94;;
60872;Laerm;46714;50.118;14.462;2022-10-22T05:51:02;76.15;68.88;79.97;;
60872;Laerm;46714;50.118;14.462;2022-10-22T05:53:33;77.98;73.37;81.51;;
60872;Laerm;46714;50.118;14.462;2022-10-22T05:56:00;78.09;72.74;84.24;;
60872;Laerm;46714;50.118;14.462;2022-10-22T05:58:26;78.14;71.08;85.80;;
60872;Laerm;46714;50.118;14.462;2022-10-22T06:00:52;77.43;71.04;81.13;;
60872;Laerm;46714;50.118;14.462;2022-10-22T06:03:17;77.82;71.03;82.04;;
60872;Laerm;46714;50.118;14.462;2022-10-22T06:05:42;78.51;72.79;83.84;;
60872;Laerm;46714;50.118;14.462;2022-10-22T06:08:10;77.85;72.89;83.40;;
60872;Laerm;46714;50.118;14.462;2022-10-22T06:10:41;78.46;73.54;82.37;;
60872;Laerm;46714;50.118;14.462;2022-10-22T06:13:07;77.93;69.26;82.75;;
60872;Laerm;46714;50.118;14.462;2022-10-22T06:15:34;77.20;66.90;81.04;;
60872;Laerm;46714;50.118;14.462;2022-10-22T06:17:59;77.74;72.29;81.48;;
60872;Laerm;46714;50.118;14.462;2022-10-22T06:20:25;77.62;72.19;80.69;;
60872;Laerm;46714;50.118;14.462;2022-10-22T06:22:50;78.25;72.50;82.83;;
60872;Laerm;46714;50.118;14.462;2022-10-22T06:25:15;78.59;72.01;83.53;;
60872;Laerm;46714;50.118;14.462;2022-10-22T06:27:41;78.38;73.59;82.09;;
60872;Laerm;46714;50.118;14.462;2022-10-22T06:30:07;78.83;74.91;82.33;;
60872;Laerm;46714;50.118;14.462;2022-10-22T06:32:32;77.92;73.26;82.66;;
60872;Laerm;46714;50.118;14.462;2022-10-22T06:34:58;78.39;74.24;81.15;;
60872;Laerm;46714;50.118;14.462;2022-10-22T06:37:23;79.06;74.26;82.93;;
60872;Laerm;46714;50.118;14.462;2022-10-22T06:39:48;78.01;72.71;80.81;;
60872;Laerm;46714;50.118;14.462;2022-10-22T06:42:14;78.32;73.09;82.62;;
60872;Laerm;46714;50.118;14.462;2022-10-22T06:44:39;79.26;74.44;82.52;;
60872;Laerm;46714;50.118;14.462;2022-10-22T06:47:04;78.31;73.71;81.96;;
60872;Laerm;46714;50.118;14.462;2022-10-22T06:49:30;78.76;73.01;83.82;;
60872;Laerm;46714;50.118;14.462;2022-10-22T06:51:55;78.86;74.26;87.41;;
60872;Laerm;46714;50.118;14.462;2022-10-22T06:54:21;78.42;70.94;84.47;;
60872;Laerm;46714;50.118;14.462;2022-10-22T06:56:48;78.63;72.90;85.00;;
60872;Laerm;46714;50.118;14.462;2022-10-22T06:59:13;77.42;70.13;82.41;;
60872;Laerm;46714;50.118;14.462;2022-10-22T07:01:39;78.12;71.60;82.50;;
60872;Laerm;46714;50.118;14.462;2022-10-22T07:04:05;77.92;70.95;82.39;;
60872;Laerm;46714;50.118;14.462;2022-10-22T07:06:31;77.76;72.36;81.94;;
60872;Laerm;46714;50.118;14.462;2022-10-22T07:08:57;77.87;72.35;81.79;;
60872;Laerm;46714;50.118;14.462;2022-10-22T07:11:39;77.84;71.64;82.60;;
60872;Laerm;46714;50.118;14.462;2022-10-22T07:14:05;77.64;72.29;82.39;;
60872;Laerm;46714;50.118;14.462;2022-10-22T07:16:30;77.83;72.40;81.62;;
60872;Laerm;46714;50.118;14.462;2022-10-22T07:18:55;77.83;72.52;82.07;;
60872;Laerm;46714;50.118;14.462;2022-10-22T07:21:21;78.92;72.81;82.77;;
60872;Laerm;46714;50.118;14.462;2022-10-22T07:23:47;78.79;73.86;83.28;;
60872;Laerm;46714;50.118;14.462;2022-10-22T07:26:15;78.17;70.31;82.85;;
60872;Laerm;46714;50.118;14.462;2022-10-22T07:28:41;78.81;73.24;83.15;;
60872;Laerm;46714;50.118;14.462;2022-10-22T07:31:09;78.52;72.72;82.13;;
60872;Laerm;46714;50.118;14.462;2022-10-22T07:33:35;78.81;74.45;81.87;;
60872;Laerm;46714;50.118;14.462;2022-10-22T07:36:03;79.07;74.09;92.24;;
60872;Laerm;46714;50.118;14.462;2022-10-22T07:38:29;77.79;71.80;81.77;;
60872;Laerm;46714;50.118;14.462;2022-10-22T07:40:55;79.03;74.41;82.86;;
60872;Laerm;46714;50.118;14.462;2022-10-22T07:43:21;78.67;73.93;81.65;;
60872;Laerm;46714;50.118;14.462;2022-10-22T07:45:46;79.05;71.96;84.20;;
60872;Laerm;46714;50.118;14.462;2022-10-22T07:48:12;78.94;74.37;81.52;;
60872;Laerm;46714;50.118;14.462;2022-10-22T07:50:37;77.07;70.05;80.67;;
60872;Laerm;46714;50.118;14.462;2022-10-22T07:53:02;78.73;73.25;83.06;;
60872;Laerm;46714;50.118;14.462;2022-10-22T07:55:28;79.61;75.66;88.02;;
60872;Laerm;46714;50.118;14.462;2022-10-22T07:57:54;78.46;73.25;81.96;;
60872;Laerm;46714;50.118;14.462;2022-10-22T08:00:20;78.45;73.63;81.56;;
60872;Laerm;46714;50.118;14.462;2022-10-22T08:02:45;78.81;74.15;81.86;;
60872;Laerm;46714;50.118;14.462;2022-10-22T08:05:12;78.43;70.19;83.24;;
60872;Laerm;46714;50.118;14.462;2022-10-22T08:07:39;78.42;71.68;82.32;;
60872;Laerm;46714;50.118;14.462;2022-10-22T08:10:05;78.50;72.70;84.07;;
60872;Laerm;46714;50.118;14.462;2022-10-22T08:12:32;79.79;74.73;86.00;;
60872;Laerm;46714;50.118;14.462;2022-10-22T08:14:58;79.23;72.77;94.59;;
60872;Laerm;46714;50.118;14.462;2022-10-22T08:17:25;82.51;73.39;102.78;;
60872;Laerm;46714;50.118;14.462;2022-10-22T08:19:50;79.39;73.93;83.93;;
60872;Laerm;46714;50.118;14.462;2022-10-22T08:22:15;80.39;75.89;83.57;;
60872;Laerm;46714;50.118;14.462;2022-10-22T08:24:41;80.48;76.05;85.18;;
60872;Laerm;46714;50.118;14.462;2022-10-22T08:27:06;79.99;75.66;83.48;;
60872;Laerm;46714;50.118;14.462;2022-10-22T08:29:32;79.73;76.10;83.74;;
60872;Laerm;46714;50.118;14.462;2022-10-22T08:31:58;79.59;73.60;83.11;;
60872;Laerm;46714;50.118;14.462;2022-10-22T08:34:23;79.31;72.94;82.35;;
60872;Laerm;46714;50.118;14.462;2022-10-22T08:36:48;79.69;74.33;82.90;;
60872;Laerm;46714;50.118;14.462;2022-10-22T08:39:14;80.08;76.01;84.23;;
60872;Laerm;46714;50.118;14.462;2022-10-22T08:42:00;80.24;75.96;84.18;;
60872;Laerm;46714;50.118;14.462;2022-10-22T08:50:23;79.39;73.61;82.64;;
60872;Laerm;46714;50.118;14.462;2022-10-22T08:52:56;80.03;73.52;84.66;;
60872;Laerm;46714;50.118;14.462;2022-10-22T08:55:24;81.95;74.16;99.92;;
60872;Laerm;46714;50.118;14.462;2022-10-22T08:58:08;78.87;73.12;82.54;;
60872;Laerm;46714;50.118;14.462;2022-10-22T09:01:11;79.70;75.05;83.09;;
60872;Laerm;46714;50.118;14.462;2022-10-22T09:03:50;79.40;74.62;83.33;;
60872;Laerm;46714;50.118;14.462;2022-10-22T09:06:28;78.73;74.14;82.22;;
60872;Laerm;46714;50.118;14.462;2022-10-22T09:08:58;79.07;74.10;82.63;;
60872;Laerm;46714;50.118;14.462;2022-10-22T09:11:32;79.22;74.66;83.89;;
60872;Laerm;46714;50.118;14.462;2022-10-22T09:14:01;79.49;75.14;82.64;;
60872;Laerm;46714;50.118;14.462;2022-10-22T09:19:39;79.64;73.69;84.81;;
60872;Laerm;46714;50.118;14.462;2022-10-22T09:22:33;79.61;72.55;83.93;;
60872;Laerm;46714;50.118;14.462;2022-10-22T09:27:43;80.06;76.15;83.23;;
60872;Laerm;46714;50.118;14.462;2022-10-22T09:30:19;78.45;73.88;82.64;;
60872;Laerm;46714;50.118;14.462;2022-10-22T09:32:45;79.24;73.82;85.23;;
60872;Laerm;46714;50.118;14.462;2022-10-22T09:35:13;78.05;73.94;81.39;;
60872;Laerm;46714;50.118;14.462;2022-10-22T09:37:51;79.13;73.50;82.42;;
60872;Laerm;46714;50.118;14.462;2022-10-22T09:40:17;79.19;74.37;82.77;;
60872;Laerm;46714;50.118;14.462;2022-10-22T09:42:44;78.84;73.89;82.71;;
60872;Laerm;46714;50.118;14.462;2022-10-22T09:45:17;79.14;74.21;83.52;;
60872;Laerm;46714;50.118;14.462;2022-10-22T09:47:43;79.29;75.34;82.76;;
60872;Laerm;46714;50.118;14.462;2022-10-22T09:53:29;78.69;72.77;91.10;;
60872;Laerm;46714;50.118;14.462;2022-10-22T09:55:58;78.11;72.94;82.30;;
60872;Laerm;46714;50.118;14.462;2022-10-22T09:58:24;79.17;71.72;92.72;;
60872;Laerm;46714;50.118;14.462;2022-10-22T10:00:53;77.75;71.00;81.91;;
60872;Laerm;46714;50.118;14.462;2022-10-22T10:03:26;78.08;69.07;81.44;;
60872;Laerm;46714;50.118;14.462;2022-10-22T10:05:54;77.64;70.72;80.82;;
60872;Laerm;46714;50.118;14.462;2022-10-22T10:08:19;77.33;72.20;81.10;;
60872;Laerm;46714;50.118;14.462;2022-10-22T10:13:22;77.43;70.97;81.46;;
60872;Laerm;46714;50.118;14.462;2022-10-22T10:21:53;77.17;69.17;82.95;;
60872;Laerm;46714;50.118;14.462;2022-10-22T10:27:14;76.81;69.99;91.63;;
60872;Laerm;46714;50.118;14.462;2022-10-22T10:30:04;76.17;70.40;80.56;;
60872;Laerm;46714;50.118;14.462;2022-10-22T10:35:41;76.31;71.74;81.14;;
60872;Laerm;46714;50.118;14.462;2022-10-22T10:43:43;75.90;70.05;80.65;;
60872;Laerm;46714;50.118;14.462;2022-10-22T10:48:59;76.24;70.97;80.63;;
60872;Laerm;46714;50.118;14.462;2022-10-22T10:58:00;76.33;71.06;80.67;;
60872;Laerm;46714;50.118;14.462;2022-10-22T11:00:19;78.44;72.11;94.75;;
60872;Laerm;46714;50.118;14.462;2022-10-22T11:05:42;75.65;71.83;78.90;;
60872;Laerm;46714;50.118;14.462;2022-10-22T11:08:33;75.40;69.14;80.24;;
60872;Laerm;46714;50.118;14.462;2022-10-22T11:11:11;76.25;70.89;81.04;;
60872;Laerm;46714;50.118;14.462;2022-10-22T11:16:27;75.92;70.56;80.22;;
60872;Laerm;46714;50.118;14.462;2022-10-22T11:19:08;75.77;68.49;79.93;;
60872;Laerm;46714;50.118;14.462;2022-10-22T11:21:50;75.77;69.26;79.57;;
60872;Laerm;46714;50.118;14.462;2022-10-22T11:27:24;75.88;69.23;81.77;;
60872;Laerm;46714;50.118;14.462;2022-10-22T11:29:57;75.79;70.34;79.61;;
60872;Laerm;46714;50.118;14.462;2022-10-22T11:32:26;75.52;70.52;79.36;;
60872;Laerm;46714;50.118;14.462;2022-10-22T11:34:55;75.39;69.99;78.42;;
60872;Laerm;46714;50.118;14.462;2022-10-22T11:37:24;76.84;71.37;91.91;;
60872;Laerm;46714;50.118;14.462;2022-10-22T11:39:53;75.68;71.04;79.09;;
60872;Laerm;46714;50.118;14.462;2022-10-22T11:42:39;75.56;69.35;81.84;;
60872;Laerm;46714;50.118;14.462;2022-10-22T11:50:23;75.85;68.69;90.33;;
60872;Laerm;46714;50.118;14.462;2022-10-22T12:00:55;75.18;66.98;79.70;;
60872;Laerm;46714;50.118;14.462;2022-10-22T12:03:36;75.33;69.28;80.32;;
60872;Laerm;46714;50.118;14.462;2022-10-22T12:08:51;75.65;69.13;80.84;;
60872;Laerm;46714;50.118;14.462;2022-10-22T12:14:20;76.05;69.95;80.32;;
60872;Laerm;46714;50.118;14.462;2022-10-22T12:17:08;75.26;68.04;80.08;;
60872;Laerm;46714;50.118;14.462;2022-10-22T12:24:35;75.57;69.78;86.47;;
60872;Laerm;46714;50.118;14.462;2022-10-22T12:27:01;75.72;69.34;81.55;;
60872;Laerm;46714;50.118;14.462;2022-10-22T12:29:31;74.74;67.56;78.92;;
60872;Laerm;46714;50.118;14.462;2022-10-22T12:32:01;75.51;69.79;82.01;;
60872;Laerm;46714;50.118;14.462;2022-10-22T12:34:27;75.02;69.33;80.84;;
60872;Laerm;46714;50.118;14.462;2022-10-22T12:36:53;75.57;68.98;82.33;;
60872;Laerm;46714;50.118;14.462;2022-10-22T12:39:26;75.96;69.16;82.70;;
60872;Laerm;46714;50.118;14.462;2022-10-22T12:41:54;75.36;69.15;80.70;;
60872;Laerm;46714;50.118;14.462;2022-10-22T12:44:20;76.07;69.42;93.30;;
60872;Laerm;46714;50.118;14.462;2022-10-22T12:46:47;75.37;70.71;78.79;;
60872;Laerm;46714;50.118;14.462;2022-10-22T12:49:19;76.59;69.31;93.54;;
60872;Laerm;46714;50.118;14.462;2022-10-22T12:51:55;75.22;68.37;79.56;;
60872;Laerm;46714;50.118;14.462;2022-10-22T12:54:29;75.82;67.72;81.87;;
60872;Laerm;46714;50.118;14.462;2022-10-22T12:57:08;79.27;66.97;100.97;;
60872;Laerm;46714;50.118;14.462;2022-10-22T12:59:37;75.48;67.79;80.09;;
60872;Laerm;46714;50.118;14.462;2022-10-22T13:02:20;75.31;69.30;78.94;;
60872;Laerm;46714;50.118;14.462;2022-10-22T13:07:41;75.39;69.46;81.05;;
60872;Laerm;46714;50.118;14.462;2022-10-22T13:10:25;75.41;71.10;78.90;;
60872;Laerm;46714;50.118;14.462;2022-10-22T13:12:56;75.32;69.87;80.22;;
60872;Laerm;46714;50.118;14.462;2022-10-22T13:18:19;75.13;68.86;80.71;;
60872;Laerm;46714;50.118;14.462;2022-10-22T13:20:56;77.02;70.29;96.82;;
60872;Laerm;46714;50.118;14.462;2022-10-22T13:23:25;75.61;70.61;84.32;;
60872;Laerm;46714;50.118;14.462;2022-10-22T13:28:26;75.61;70.81;80.92;;
60872;Laerm;46714;50.118;14.462;2022-10-22T13:30:56;75.15;70.85;78.59;;
60872;Laerm;46714;50.118;14.462;2022-10-22T13:33:29;75.52;70.65;79.53;;
60872;Laerm;46714;50.118;14.462;2022-10-22T13:36:00;75.74;70.41;80.38;;
60872;Laerm;46714;50.118;14.462;2022-10-22T13:38:27;75.46;66.98;80.15;;
60872;Laerm;46714;50.118;14.462;2022-10-22T13:40:54;74.66;68.54;79.06;;
60872;Laerm;46714;50.118;14.462;2022-10-22T13:43:22;80.56;68.23;99.79;;
60872;Laerm;46714;50.118;14.462;2022-10-22T13:45:52;75.50;70.27;82.54;;
60872;Laerm;46714;50.118;14.462;2022-10-22T13:48:20;75.18;70.46;78.79;;
60872;Laerm;46714;50.118;14.462;2022-10-22T13:50:49;75.69;70.44;80.75;;
60872;Laerm;46714;50.118;14.462;2022-10-22T13:53:18;75.12;69.51;81.78;;
60872;Laerm;46714;50.118;14.462;2022-10-22T13:55:44;74.98;69.86;79.76;;
60872;Laerm;46714;50.118;14.462;2022-10-22T13:58:16;74.98;69.21;80.53;;
60872;Laerm;46714;50.118;14.462;2022-10-22T14:00:45;75.64;70.42;79.49;;
60872;Laerm;46714;50.118;14.462;2022-10-22T14:03:16;75.32;69.29;78.54;;
60872;Laerm;46714;50.118;14.462;2022-10-22T14:05:45;74.72;68.34;79.58;;
60872;Laerm;46714;50.118;14.462;2022-10-22T14:08:14;75.17;67.20;78.57;;
60872;Laerm;46714;50.118;14.462;2022-10-22T14:10:42;75.30;70.21;80.96;;
60872;Laerm;46714;50.118;14.462;2022-10-22T14:13:09;74.77;66.24;80.15;;
60872;Laerm;46714;50.118;14.462;2022-10-22T14:15:35;74.91;69.37;80.21;;
60872;Laerm;46714;50.118;14.462;2022-10-22T14:18:03;74.91;70.01;79.06;;
60872;Laerm;46714;50.118;14.462;2022-10-22T14:20:31;74.88;69.34;77.94;;
60872;Laerm;46714;50.118;14.462;2022-10-22T14:23:12;75.01;70.08;79.17;;
60872;Laerm;46714;50.118;14.462;2022-10-22T14:25:39;74.61;67.80;87.61;;
60872;Laerm;46714;50.118;14.462;2022-10-22T14:28:04;76.60;68.99;96.44;;
60872;Laerm;46714;50.118;14.462;2022-10-22T14:30:30;75.64;71.01;84.65;;
60872;Laerm;46714;50.118;14.462;2022-10-22T14:32:57;75.19;68.79;78.96;;
60872;Laerm;46714;50.118;14.462;2022-10-22T14:35:23;74.95;65.85;78.52;;
60872;Laerm;46714;50.118;14.462;2022-10-22T14:37:48;75.00;70.10;79.93;;
60872;Laerm;46714;50.118;14.462;2022-10-22T14:40:17;75.01;70.78;79.05;;
60872;Laerm;46714;50.118;14.462;2022-10-22T14:42:45;75.30;69.86;81.09;;
60872;Laerm;46714;50.118;14.462;2022-10-22T14:45:23;74.97;68.17;79.47;;
60872;Laerm;46714;50.118;14.462;2022-10-22T14:47:50;75.00;69.86;79.82;;
60872;Laerm;46714;50.118;14.462;2022-10-22T14:50:17;74.79;69.86;77.93;;
60872;Laerm;46714;50.118;14.462;2022-10-22T14:52:42;74.48;68.13;78.36;;
60872;Laerm;46714;50.118;14.462;2022-10-22T14:55:09;79.39;70.98;98.47;;
60872;Laerm;46714;50.118;14.462;2022-10-22T14:57:36;74.98;68.23;79.59;;
60872;Laerm;46714;50.118;14.462;2022-10-22T15:00:05;75.21;67.38;79.14;;
60872;Laerm;46714;50.118;14.462;2022-10-22T15:02:31;74.40;70.20;78.35;;
60872;Laerm;46714;50.118;14.462;2022-10-22T15:04:57;74.49;69.03;82.21;;
60872;Laerm;46714;50.118;14.462;2022-10-22T15:07:22;74.83;67.67;79.97;;
60872;Laerm;46714;50.118;14.462;2022-10-22T15:09:49;74.60;69.69;78.02;;
60872;Laerm;46714;50.118;14.462;2022-10-22T15:12:15;75.27;69.14;81.38;;
60872;Laerm;46714;50.118;14.462;2022-10-22T15:14:40;74.82;68.10;78.81;;
60872;Laerm;46714;50.118;14.462;2022-10-22T15:17:05;74.67;70.47;78.44;;
60872;Laerm;46714;50.118;14.462;2022-10-22T15:19:32;74.94;70.63;79.03;;
60872;Laerm;46714;50.118;14.462;2022-10-22T15:21:58;75.44;70.79;79.31;;
60872;Laerm;46714;50.118;14.462;2022-10-22T15:24:23;75.18;71.09;82.22;;
60872;Laerm;46714;50.118;14.462;2022-10-22T15:26:49;74.60;68.46;78.33;;
60872;Laerm;46714;50.118;14.462;2022-10-22T15:29:18;77.31;70.33;95.32;;
60872;Laerm;46714;50.118;14.462;2022-10-22T15:31:47;75.03;70.39;78.78;;
60872;Laerm;46714;50.118;14.462;2022-10-22T15:34:21;74.79;67.28;78.62;;